createdAt,value
2023-03-11T00:00:50.321Z,0.4679
2023-03-11T00:01:50.413Z,0.4679
2023-03-11T00:02:50.401Z,0.4819
2023-03-11T00:03:50.424Z,0.4282
2023-03-11T00:04:50.455Z,0.4142
2023-03-11T00:05:50.494Z,0.4001
2023-03-11T00:06:50.530Z,0.4062
2023-03-11T00:07:50.560Z,0.4202
2023-03-11T00:08:50.597Z,0.4342
2023-03-11T00:09:50.641Z,0.4482
2023-03-11T00:10:50.681Z,0.4482
2023-03-11T00:11:50.707Z,0.4622
2023-03-11T00:12:50.733Z,0.4069
2023-03-11T00:13:50.788Z,0.4036
2023-03-11T00:14:50.821Z,0.4176
2023-03-11T00:15:50.862Z,0.4036
2023-03-11T00:16:50.907Z,0.4176
2023-03-11T00:17:50.917Z,0.4315
2023-03-11T00:18:50.954Z,0.4315
2023-03-11T00:19:50.986Z,0.4455
2023-03-11T00:20:51.022Z,0.4455
2023-03-11T00:21:51.058Z,0.4594
2023-03-11T00:22:51.242Z,0.4594
2023-03-11T00:23:51.137Z,0.5045
2023-03-11T00:24:51.177Z,0.5184
2023-03-11T00:25:51.211Z,0.4906
2023-03-11T00:26:51.251Z,0.4286
2023-03-11T00:27:51.287Z,0.4933
2023-03-11T00:28:51.310Z,0.5071
2023-03-11T00:29:51.333Z,0.4702
2023-03-11T00:30:51.423Z,0.4841
2023-03-11T00:31:51.410Z,0.4841
2023-03-11T00:32:51.463Z,0.4841
2023-03-11T00:33:52.493Z,0.4748
2023-03-11T00:34:51.510Z,0.4807
2023-03-11T00:35:51.571Z,0.5082
2023-03-11T00:36:51.586Z,0.4851
2023-03-11T00:37:51.609Z,0.4989
2023-03-11T00:38:51.691Z,0.4758
2023-03-11T00:39:51.692Z,0.5032
2023-03-11T00:40:51.716Z,0.517
2023-03-11T00:41:51.746Z,0.4939
2023-03-11T00:42:51.782Z,0.5349
2023-03-11T00:43:51.835Z,0.5759
2023-03-11T00:44:51.846Z,0.5365
2023-03-11T00:45:51.912Z,0.5773
2023-03-11T00:46:51.918Z,0.5813
2023-03-11T00:47:51.970Z,0.5678
2023-03-11T00:48:52.010Z,0.5813
2023-03-11T00:49:52.037Z,0.5949
2023-03-11T00:50:52.090Z,0.5949
2023-03-11T00:51:52.116Z,0.6084
2023-03-11T00:52:52.135Z,0.5717
2023-03-11T00:53:52.168Z,0.5679
2023-03-11T00:54:52.203Z,0.5815
2023-03-11T00:55:52.253Z,0.595
2023-03-11T00:56:52.268Z,0.5583
2023-03-11T00:57:52.312Z,0.5718
2023-03-11T00:58:52.380Z,0.5718
2023-03-11T00:59:52.382Z,0.5988
2023-03-11T01:00:52.417Z,0.6123
2023-03-11T01:01:52.460Z,0.6026
2023-03-11T01:02:52.491Z,0.6294
2023-03-11T01:03:52.562Z,0.6563
2023-03-11T01:04:52.636Z,0.6831
2023-03-11T01:05:52.596Z,0.6831
2023-03-11T01:06:52.646Z,0.7062
2023-03-11T01:07:52.673Z,0.6697
2023-03-11T01:08:52.729Z,0.6964
2023-03-11T01:09:52.758Z,0.6964
2023-03-11T01:10:52.820Z,0.6964
2023-03-11T01:11:52.829Z,0.6964
2023-03-11T01:12:52.856Z,0.6874
2023-03-11T01:13:52.896Z,0.67
2023-03-11T01:14:52.940Z,0.6834
2023-03-11T01:15:53.040Z,0.67
2023-03-11T01:16:53.030Z,0.6517
2023-03-11T01:17:53.060Z,0.616
2023-03-11T01:18:53.081Z,0.616
2023-03-11T01:19:53.180Z,0.616
2023-03-11T01:20:53.224Z,0.616
2023-03-11T01:21:53.268Z,0.616
2023-03-11T01:22:53.238Z,0.6293
2023-03-11T01:23:53.264Z,0.6426
2023-03-11T01:24:53.294Z,0.5837
2023-03-11T01:25:53.324Z,0.597
2023-03-11T01:26:53.376Z,0.6376
2023-03-11T01:27:53.414Z,0.6154
2023-03-11T01:28:53.442Z,0.6509
2023-03-11T01:29:53.468Z,0.6154
2023-03-11T01:30:53.528Z,0.6328
2023-03-11T01:31:53.541Z,0.6511
2023-03-11T01:32:53.580Z,0.646
2023-03-11T01:33:53.622Z,0.6328
2023-03-11T01:34:53.679Z,0.6328
2023-03-11T01:35:53.716Z,0.5963
2023-03-11T01:36:53.718Z,0.6013
2023-03-11T01:37:53.747Z,0.6096
2023-03-11T01:38:53.790Z,0.5922
2023-03-11T01:39:53.833Z,0.5789
2023-03-11T01:40:53.869Z,0.5789
2023-03-11T01:41:53.905Z,0.5789
2023-03-11T01:42:53.935Z,0.5922
2023-03-11T01:43:53.962Z,0.6055
2023-03-11T01:44:54.009Z,0.6188
2023-03-11T01:45:54.047Z,0.6055
2023-03-11T01:46:54.239Z,0.569
2023-03-11T01:47:54.121Z,0.5823
2023-03-11T01:48:54.156Z,0.6088
2023-03-11T01:49:54.193Z,0.6088
2023-03-11T01:50:54.257Z,0.569
2023-03-11T01:51:54.266Z,0.569
2023-03-11T01:52:54.294Z,0.6353
2023-03-11T01:53:54.327Z,0.6353
2023-03-11T01:54:54.373Z,0.6486
2023-03-11T01:55:54.413Z,0.6618
2023-03-11T01:56:54.441Z,0.675
2023-03-11T01:57:54.498Z,0.6882
2023-03-11T01:58:54.508Z,0.6882
2023-03-11T01:59:54.544Z,0.6708
2023-03-11T02:00:54.588Z,0.6218
2023-03-11T02:01:54.682Z,0.6218
2023-03-11T02:02:54.736Z,0.6218
2023-03-11T02:03:54.701Z,0.6218
2023-03-11T02:04:54.727Z,0.635
2023-03-11T02:05:54.763Z,0.6118
2023-03-11T02:06:54.798Z,0.5986
2023-03-11T02:07:54.845Z,0.6118
2023-03-11T02:08:54.871Z,0.5934
2023-03-11T02:09:54.915Z,0.576
2023-03-11T02:10:54.935Z,0.5628
2023-03-11T02:11:54.979Z,0.5628
2023-03-11T02:12:55.036Z,0.576
2023-03-11T02:13:55.053Z,0.576
2023-03-11T02:14:55.092Z,0.576
2023-03-11T02:15:55.137Z,0.5892
2023-03-11T02:16:55.188Z,0.5792
2023-03-11T02:17:55.221Z,0.5792
2023-03-11T02:18:55.248Z,0.5792
2023-03-11T02:19:55.280Z,0.5792
2023-03-11T02:20:55.356Z,0.5792
2023-03-11T02:21:55.351Z,0.5923
2023-03-11T02:22:55.388Z,0.5923
2023-03-11T02:23:55.429Z,0.6054
2023-03-11T02:24:55.463Z,0.6317
2023-03-11T02:25:55.503Z,0.6448
2023-03-11T02:26:55.538Z,0.6579
2023-03-11T02:27:55.580Z,0.6579
2023-03-11T02:28:55.597Z,0.6579
2023-03-11T02:29:55.637Z,0.6579
2023-03-11T02:30:55.667Z,0.6579
2023-03-11T02:31:55.769Z,0.6579
2023-03-11T02:32:55.754Z,0.6709
2023-03-11T02:33:55.775Z,0.6709
2023-03-11T02:34:55.811Z,0.684
2023-03-11T02:35:55.905Z,0.684
2023-03-11T02:36:55.875Z,0.6971
2023-03-11T02:37:55.917Z,0.7101
2023-03-11T02:38:55.946Z,0.7101
2023-03-11T02:39:55.968Z,0.7101
2023-03-11T02:40:56.027Z,0.7101
2023-03-11T02:41:56.038Z,0.7275
2023-03-11T02:42:56.084Z,0.7275
